Time;durP1;ratioP1;P1;durP2;ratioP2;P2;SDS_P1;SDS_P2;PMS_P1;PMS_P2;Temp;Humidity;BMP_temperature;BMP_pressure;BME280_temperature;BME280_humidity;BME280_pressure;Samples;Min_cycle;Max_cycle;Signal;HPM_P1;HPM_P2
2023/01/31 00:01:29;;;;;;;;;;;;;;;2.99;71.56;98541.78;4900751;29;19933;-57
2023/01/31 00:03:58;;;;;;;;;;;;;;;2.97;71.82;98535.81;4924275;29;19927;-57
2023/01/31 00:06:26;;;;;;;;;;;;;;;2.96;71.62;98536.88;4915927;29;19936;-57
2023/01/31 00:08:54;;;;;;;;;;;;;;;2.87;72.09;98533.00;4914125;29;19931;-57
2023/01/31 00:11:24;;;;;;;;;;;;;;;2.85;72.23;98537.81;4909264;29;19930;-57
2023/01/31 00:13:52;;;;;;;;;;;;;;;2.80;72.47;98545.78;4910510;29;19927;-56
2023/01/31 00:16:23;;;;;;;;;;;;;;;2.79;72.54;98539.59;4916717;29;20297;-54
2023/01/31 00:18:51;;;;;;;;;;;;;;;2.80;72.25;98551.16;4909151;29;19931;-56
2023/01/31 00:21:19;;;;;;;;;;;;;;;2.78;72.20;98539.84;4917175;29;19935;-57
2023/01/31 00:23:48;;;;;;;;;;;;;;;2.75;72.70;98540.34;4912041;29;19954;-56
2023/01/31 00:26:17;;;;;;;;;;;;;;;2.76;72.80;98548.13;4917913;29;19931;-56
2023/01/31 00:28:47;;;;;;;;;;;;;;;2.76;72.80;98548.13;4917657;29;19935;-57
2023/01/31 00:31:15;;;;;;;;;;;;;;;2.80;72.16;98565.38;4909670;29;20352;-57
2023/01/31 00:33:45;;;;;;;;;;;;;;;2.83;72.16;98564.09;4934242;29;20372;-56
2023/01/31 00:36:14;;;;;;;;;;;;;;;2.80;72.25;98561.88;4900689;29;19935;-57
2023/01/31 00:38:45;;;;;;;;;;;;;;;2.71;72.54;98556.09;4924611;29;20010;-56
2023/01/31 00:41:13;;;;;;;;;;;;;;;2.75;72.91;98561.78;4930377;29;20009;-56
2023/01/31 00:43:41;;;;;;;;;;;;;;;2.75;72.25;98556.44;4910852;29;19931;-58
2023/01/31 00:46:11;;;;;;;;;;;;;;;2.75;72.48;98554.56;4910472;29;20001;-57
2023/01/31 00:48:39;;;;;;;;;;;;;;;2.75;72.57;98572.53;4900237;29;19930;-57
2023/01/31 00:51:07;;;;;;;;;;;;;;;2.68;72.46;98566.53;4906399;29;19927;-56
2023/01/31 00:53:35;;;;;;;;;;;;;;;2.67;72.92;98576.44;4918846;29;20301;-57
2023/01/31 00:56:04;;;;;;;;;;;;;;;2.68;73.15;98571.88;4920538;29;20391;-57
2023/01/31 00:58:59;;;;;;;;;;;;;;;2.69;72.64;98573.50;4917266;29;19934;-56
2023/01/31 01:01:28;;;;;;;;;;;;;;;2.65;73.23;98575.03;4930196;29;19979;-56
2023/01/31 01:03:57;;;;;;;;;;;;;;;2.65;73.27;98567.00;4905707;29;19931;-56
2023/01/31 01:06:25;;;;;;;;;;;;;;;2.68;73.42;98574.56;4914476;29;19927;-57
2023/01/31 01:08:53;;;;;;;;;;;;;;;2.55;73.32;98563.09;4914416;29;19938;-56
2023/01/31 01:11:22;;;;;;;;;;;;;;;2.54;73.81;98566.03;4927533;29;19939;-57
2023/01/31 01:13:51;;;;;;;;;;;;;;;2.51;73.74;98571.88;4923059;29;19927;-56
2023/01/31 01:16:22;;;;;;;;;;;;;;;2.48;74.06;98573.16;4914224;29;19931;-57
2023/01/31 01:18:53;;;;;;;;;;;;;;;2.50;73.88;98573.72;4926742;29;19945;-56
2023/01/31 01:21:22;;;;;;;;;;;;;;;2.43;74.25;98575.75;4916276;29;20405;-56
2023/01/31 01:23:50;;;;;;;;;;;;;;;2.43;74.27;98575.75;4904508;29;19934;-56
2023/01/31 01:26:19;;;;;;;;;;;;;;;2.45;74.10;98581.72;4923812;29;19945;-57
2023/01/31 01:28:49;;;;;;;;;;;;;;;2.40;74.34;98573.59;4911115;29;19931;-58
2023/01/31 01:31:17;;;;;;;;;;;;;;;2.39;74.21;98566.56;4914589;29;19978;-57
2023/01/31 01:33:46;;;;;;;;;;;;;;;2.42;74.64;98563.41;4908095;29;20384;-55
2023/01/31 01:36:40;;;;;;;;;;;;;;;2.40;74.46;98575.41;4916820;29;19934;-57
2023/01/31 01:39:15;;;;;;;;;;;;;;;2.29;74.52;98575.28;4901719;29;20670;-56
2023/01/31 01:41:43;;;;;;;;;;;;;;;2.34;74.45;98583.41;4936962;29;20015;-57
2023/01/31 01:44:30;;;;;;;;;;;;;;;2.30;74.58;98576.09;4930280;29;19931;-56
2023/01/31 01:46:58;;;;;;;;;;;;;;;2.32;74.62;98582.81;4930309;29;19942;-56
2023/01/31 01:52:47;;;;;;;;;;;;;;;2.26;74.76;98559.66;4923169;29;19943;-57
2023/01/31 01:55:18;;;;;;;;;;;;;;;2.29;74.69;98558.34;4905499;29;20304;-56
2023/01/31 01:57:47;;;;;;;;;;;;;;;2.27;74.99;98560.47;4916556;29;19938;-57
2023/01/31 02:00:15;;;;;;;;;;;;;;;2.29;74.65;98563.72;4921069;29;19934;-56
2023/01/31 02:02:44;;;;;;;;;;;;;;;2.24;75.04;98574.38;4913811;29;20300;-57
2023/01/31 02:05:12;;;;;;;;;;;;;;;2.15;75.35;98568.56;4914633;29;19927;-57
2023/01/31 02:07:42;;;;;;;;;;;;;;;2.15;75.35;98578.47;4897982;29;20474;-57
2023/01/31 02:10:12;;;;;;;;;;;;;;;2.07;75.40;98575.13;4905352;29;19927;-56
2023/01/31 02:12:41;;;;;;;;;;;;;;;2.03;75.63;98592.75;4916040;29;19935;-57
2023/01/31 02:15:10;;;;;;;;;;;;;;;2.09;75.56;98596.34;4910590;29;20385;-57
2023/01/31 02:17:40;;;;;;;;;;;;;;;2.10;75.66;98592.59;4902329;29;20369;-57
2023/01/31 02:20:22;;;;;;;;;;;;;;;2.11;75.38;98588.88;4898861;29;20043;-57
2023/01/31 02:22:54;;;;;;;;;;;;;;;2.10;75.41;98593.41;4916371;29;20013;-55
2023/01/31 02:25:44;;;;;;;;;;;;;;;2.11;75.43;98602.25;4909501;29;19958;-57
2023/01/31 02:28:29;;;;;;;;;;;;;;;2.19;75.26;98595.72;4940956;29;19931;-56
2023/01/31 02:31:31;;;;;;;;;;;;;;;2.20;75.61;98600.03;4919973;29;19927;-57
2023/01/31 02:34:06;;;;;;;;;;;;;;;2.13;75.61;98597.50;4877917;29;19949;-57
2023/01/31 02:36:38;;;;;;;;;;;;;;;2.20;75.50;98602.72;4876377;29;20002;-57
2023/01/31 02:39:11;;;;;;;;;;;;;;;2.19;75.33;98612.63;4890989;29;20400;-57
2023/01/31 02:41:40;;;;;;;;;;;;;;;2.22;75.48;98611.31;4930750;29;19931;-55
2023/01/31 02:47:21;;;;;;;;;;;;;;;2.19;75.04;98606.44;4909999;29;19934;-57
2023/01/31 02:49:52;;;;;;;;;;;;;;;2.15;75.84;98611.47;4911116;29;20304;-57
2023/01/31 02:52:45;;;;;;;;;;;;;;;2.10;75.65;98614.03;4931445;29;19935;-56
2023/01/31 02:58:01;;;;;;;;;;;;;;;2.05;75.73;98612.06;4918776;29;19978;-56
2023/01/31 03:00:30;;;;;;;;;;;;;;;1.96;76.42;98616.19;4921257;29;20292;-57
2023/01/31 03:02:58;;;;;;;;;;;;;;;1.93;76.19;98613.19;4922774;29;19930;-57
2023/01/31 03:05:28;;;;;;;;;;;;;;;1.96;76.39;98616.19;4920094;29;19958;-57
2023/01/31 03:07:56;;;;;;;;;;;;;;;1.88;76.71;98619.25;4901420;29;19928;-56
2023/01/31 03:10:31;;;;;;;;;;;;;;;1.87;76.72;98617.63;4924613;29;19935;-57
2023/01/31 03:13:02;;;;;;;;;;;;;;;1.83;76.40;98608.44;4903854;29;20253;-56
2023/01/31 03:18:28;;;;;;;;;;;;;;;1.79;76.49;98617.97;4932233;29;19927;-57
2023/01/31 03:20:59;;;;;;;;;;;;;;;1.79;76.45;98615.31;4928555;29;20379;-57
2023/01/31 03:23:29;;;;;;;;;;;;;;;1.76;76.45;98613.13;4931235;29;20396;-57
2023/01/31 03:25:58;;;;;;;;;;;;;;;1.76;76.44;98624.66;4923043;29;19927;-57
2023/01/31 03:28:28;;;;;;;;;;;;;;;1.82;76.43;98633.59;4908921;29;19966;-56
2023/01/31 03:30:57;;;;;;;;;;;;;;;1.80;76.36;98639.16;4901185;29;20344;-56
2023/01/31 03:33:28;;;;;;;;;;;;;;;1.80;76.56;98646.41;4913322;29;19970;-58
2023/01/31 03:36:02;;;;;;;;;;;;;;;1.72;76.91;98646.78;4944701;29;19931;-57
2023/01/31 03:38:32;;;;;;;;;;;;;;;1.75;76.98;98648.97;4930064;29;19977;-56
2023/01/31 03:41:02;;;;;;;;;;;;;;;1.72;76.75;98654.81;4929778;29;19937;-57
2023/01/31 03:43:32;;;;;;;;;;;;;;;1.72;77.11;98652.13;4931904;29;19927;-57
2023/01/31 03:46:01;;;;;;;;;;;;;;;1.70;77.14;98663.06;4924934;29;19974;-57
2023/01/31 03:48:30;;;;;;;;;;;;;;;1.68;76.90;98661.69;4900451;29;19941;-57
2023/01/31 03:50:58;;;;;;;;;;;;;;;1.66;77.27;98661.13;4901700;29;19927;-57
2023/01/31 03:53:29;;;;;;;;;;;;;;;1.65;77.13;98675.53;4934386;29;19987;-55
2023/01/31 03:55:58;;;;;;;;;;;;;;;1.68;77.20;98680.44;4905741;29;19931;-57
2023/01/31 03:58:52;;;;;;;;;;;;;;;1.69;77.27;98688.22;4913956;29;19935;-54
2023/01/31 04:01:21;;;;;;;;;;;;;;;1.73;76.84;98694.75;4896053;29;19931;-57
2023/01/31 04:03:49;;;;;;;;;;;;;;;1.74;76.80;98687.53;4938206;29;19938;-57
2023/01/31 04:06:16;;;;;;;;;;;;;;;1.66;77.00;98677.19;4927491;29;20296;-56
2023/01/31 04:08:46;;;;;;;;;;;;;;;1.68;77.16;98685.78;4924689;29;20344;-56
2023/01/31 04:11:15;;;;;;;;;;;;;;;1.70;77.18;98683.69;4905557;29;20456;-57
2023/01/31 04:13:43;;;;;;;;;;;;;;;1.70;77.21;98689.03;4911877;29;19928;-56
2023/01/31 04:16:11;;;;;;;;;;;;;;;1.68;76.92;98693.81;4902590;29;19934;-56
2023/01/31 04:18:41;;;;;;;;;;;;;;;1.64;77.44;98711.41;4926928;29;19949;-57
2023/01/31 04:21:09;;;;;;;;;;;;;;;1.77;76.92;98714.66;4923115;29;20309;-56
2023/01/31 04:24:03;;;;;;;;;;;;;;;1.72;76.87;98714.56;4915184;29;20300;-57
2023/01/31 04:26:31;;;;;;;;;;;;;;;1.75;77.01;98718.63;4914316;29;19933;-57
2023/01/31 04:28:59;;;;;;;;;;;;;;;1.74;77.14;98714.31;4915083;29;19927;-57
2023/01/31 04:31:27;;;;;;;;;;;;;;;1.84;76.75;98717.22;4908366;29;19936;-57
2023/01/31 04:34:00;;;;;;;;;;;;;;;1.84;76.80;98717.22;4903966;29;20021;-56
2023/01/31 04:36:29;;;;;;;;;;;;;;;1.81;76.67;98709.63;4906272;29;20325;-56
2023/01/31 04:39:22;;;;;;;;;;;;;;;1.86;76.74;98716.97;4905063;29;19931;-56
2023/01/31 04:41:51;;;;;;;;;;;;;;;1.85;76.83;98718.84;4906019;29;19979;-57
2023/01/31 04:44:19;;;;;;;;;;;;;;;1.83;76.88;98715.59;4921038;29;19934;-57
2023/01/31 04:46:47;;;;;;;;;;;;;;;1.93;77.09;98725.72;4916897;29;20208;-56
2023/01/31 04:49:19;;;;;;;;;;;;;;;1.83;77.02;98720.97;4909202;29;20436;-56
2023/01/31 04:52:12;;;;;;;;;;;;;;;1.81;77.16;98715.00;4909800;29;19934;-56
2023/01/31 04:54:40;;;;;;;;;;;;;;;1.82;77.34;98704.06;4912931;29;20292;-56
2023/01/31 05:00:02;;;;;;;;;;;;;;;1.82;77.36;98703.25;4904873;29;19928;-57
2023/01/31 05:02:30;;;;;;;;;;;;;;;1.83;77.03;98707.56;4912872;29;20412;-57
2023/01/31 05:04:58;;;;;;;;;;;;;;;1.78;77.37;98702.91;4910135;29;19938;-57
2023/01/31 05:07:26;;;;;;;;;;;;;;;1.86;76.98;98704.41;4908977;29;19931;-56
2023/01/31 05:09:54;;;;;;;;;;;;;;;1.84;77.02;98690.44;4927020;28;19979;-56
2023/01/31 05:12:27;;;;;;;;;;;;;;;1.91;77.12;98690.28;4904137;29;19934;-57
2023/01/31 05:14:55;;;;;;;;;;;;;;;1.93;77.08;98698.94;4908354;29;19934;-54
2023/01/31 05:17:28;;;;;;;;;;;;;;;2.02;76.42;98692.94;4903672;29;19928;-57
2023/01/31 05:19:56;;;;;;;;;;;;;;;1.95;76.59;98697.63;4923437;29;20031;-55
2023/01/31 05:22:24;;;;;;;;;;;;;;;1.99;76.29;98704.16;4905945;29;19928;-57
2023/01/31 05:24:53;;;;;;;;;;;;;;;2.04;76.02;98696.22;4904379;29;19927;-57
2023/01/31 05:27:25;;;;;;;;;;;;;;;2.09;76.51;98693.66;4904395;29;19935;-58
2023/01/31 05:29:53;;;;;;;;;;;;;;;2.07;76.33;98687.69;4905669;29;19931;-56
2023/01/31 05:32:20;;;;;;;;;;;;;;;2.14;76.01;98697.50;4910425;29;19927;-57
2023/01/31 05:34:51;;;;;;;;;;;;;;;2.13;76.04;98702.03;4907882;29;19934;-57
2023/01/31 05:37:19;;;;;;;;;;;;;;;2.12;76.05;98694.22;4911092;29;19934;-57
2023/01/31 05:39:47;;;;;;;;;;;;;;;2.12;76.04;98695.03;4904047;29;20158;-57
2023/01/31 05:42:15;;;;;;;;;;;;;;;2.15;75.86;98677.66;4912126;29;19943;-58
2023/01/31 05:44:45;;;;;;;;;;;;;;;2.25;75.34;98676.00;4905849;29;19950;-57
2023/01/31 05:47:13;;;;;;;;;;;;;;;2.15;75.59;98683.03;4902453;29;19927;-56
2023/01/31 05:52:37;;;;;;;;;;;;;;;2.06;76.19;98683.38;4918061;29;19931;-57
2023/01/31 05:55:08;;;;;;;;;;;;;;;2.10;75.62;98689.91;4923032;29;19950;-57
2023/01/31 05:57:36;;;;;;;;;;;;;;;2.19;75.39;98698.41;4930583;29;19931;-58
2023/01/31 06:00:07;;;;;;;;;;;;;;;2.15;75.49;98707.97;4924342;29;19981;-55
2023/01/31 06:02:38;;;;;;;;;;;;;;;2.16;75.69;98712.28;4917876;29;19931;-58
2023/01/31 06:05:06;;;;;;;;;;;;;;;2.17;75.69;98715.75;4916155;29;19938;-57
2023/01/31 06:07:34;;;;;;;;;;;;;;;2.26;75.68;98711.66;4917174;29;19927;-57
2023/01/31 06:10:02;;;;;;;;;;;;;;;2.26;75.09;98708.97;4914394;29;19927;-59
2023/01/31 06:12:30;;;;;;;;;;;;;;;2.21;75.29;98714.25;4925517;29;19938;-57
2023/01/31 06:14:58;;;;;;;;;;;;;;;2.28;74.88;98705.00;4900482;29;19927;-57
2023/01/31 06:17:29;;;;;;;;;;;;;;;2.26;75.40;98714.34;4907230;29;19927;-57
2023/01/31 06:19:58;;;;;;;;;;;;;;;2.35;74.73;98715.59;4924783;29;19927;-57
2023/01/31 06:22:27;;;;;;;;;;;;;;;2.32;74.84;98713.38;4927932;29;19931;-63
2023/01/31 06:24:54;;;;;;;;;;;;;;;2.33;74.61;98715.81;4915219;29;19931;-61
2023/01/31 06:27:22;;;;;;;;;;;;;;;2.40;74.56;98721.06;4938571;29;19930;-57
2023/01/31 06:29:50;;;;;;;;;;;;;;;2.34;74.56;98724.69;4925898;29;19928;-63
2023/01/31 06:32:18;;;;;;;;;;;;;;;2.41;74.56;98722.69;4924702;29;20014;-59
2023/01/31 06:34:48;;;;;;;;;;;;;;;2.41;74.29;98721.88;4917571;29;19974;-57
2023/01/31 06:37:16;;;;;;;;;;;;;;;2.41;74.08;98725.38;4915506;29;19927;-57
2023/01/31 06:39:43;;;;;;;;;;;;;;;2.42;74.21;98726.19;4919661;29;19962;-57
2023/01/31 06:42:12;;;;;;;;;;;;;;;2.53;73.79;98731.50;4927631;29;19927;-57
2023/01/31 06:44:40;;;;;;;;;;;;;;;2.50;73.46;98731.16;4919721;29;19931;-57
2023/01/31 06:47:08;;;;;;;;;;;;;;;2.53;73.46;98726.16;4915565;29;19935;-57
2023/01/31 06:52:54;;;;;;;;;;;;;;;2.44;73.86;98727.56;4922255;29;19933;-58
2023/01/31 06:55:24;;;;;;;;;;;;;;;2.38;74.48;98728.53;4904164;29;19934;-57
2023/01/31 06:57:52;;;;;;;;;;;;;;;2.52;73.92;98731.75;4907669;29;19981;-57
2023/01/31 07:00:20;;;;;;;;;;;;;;;2.53;73.91;98730.69;4913338;29;20360;-57
2023/01/31 07:02:48;;;;;;;;;;;;;;;2.51;73.65;98728.25;4926002;29;19931;-57
2023/01/31 07:05:16;;;;;;;;;;;;;;;2.54;73.12;98732.31;4923441;29;20412;-57
2023/01/31 07:07:44;;;;;;;;;;;;;;;2.46;73.42;98733.53;4898642;29;19928;-56
2023/01/31 07:10:13;;;;;;;;;;;;;;;2.50;73.26;98742.69;4912854;29;19950;-57
2023/01/31 07:12:41;;;;;;;;;;;;;;;2.51;73.55;98739.00;4925123;29;19938;-56
2023/01/31 07:15:10;;;;;;;;;;;;;;;2.50;73.31;98740.03;4907241;29;19938;-57
2023/01/31 07:17:38;;;;;;;;;;;;;;;2.46;73.81;98735.41;4916262;29;19935;-58
2023/01/31 07:20:07;;;;;;;;;;;;;;;2.54;73.16;98743.06;4914715;29;19942;-57
2023/01/31 07:22:35;;;;;;;;;;;;;;;2.51;73.53;98733.63;4914470;29;19927;-57
2023/01/31 07:25:03;;;;;;;;;;;;;;;2.53;73.14;98736.06;4933877;29;20407;-57
2023/01/31 07:27:56;;;;;;;;;;;;;;;2.59;72.96;98733.22;4914480;29;19938;-58
2023/01/31 07:30:24;;;;;;;;;;;;;;;2.50;72.93;98737.34;4916445;29;19931;-58
2023/01/31 07:32:53;;;;;;;;;;;;;;;2.52;73.12;98735.25;4899305;29;19927;-58
2023/01/31 07:35:28;;;;;;;;;;;;;;;2.50;72.98;98737.34;4923087;29;19927;-59
2023/01/31 07:38:11;;;;;;;;;;;;;;;2.54;72.57;98735.00;4908203;29;19927;-58
2023/01/31 07:40:39;;;;;;;;;;;;;;;2.54;72.48;98732.31;4913034;29;19927;-57
2023/01/31 07:43:09;;;;;;;;;;;;;;;2.64;72.09;98737.88;4918166;29;19927;-57
2023/01/31 07:45:41;;;;;;;;;;;;;;;2.59;72.26;98740.47;4908574;29;19927;-58
2023/01/31 07:48:09;;;;;;;;;;;;;;;2.59;71.60;98746.66;4929553;29;19936;-58
2023/01/31 07:50:37;;;;;;;;;;;;;;;2.53;72.47;98755.66;4926646;29;19927;-57
2023/01/31 07:53:05;;;;;;;;;;;;;;;2.67;72.06;98752.69;4924581;29;19974;-57
2023/01/31 07:55:33;;;;;;;;;;;;;;;2.66;71.69;98764.47;4920056;29;20301;-58
2023/01/31 07:58:02;;;;;;;;;;;;;;;2.64;71.57;98759.34;4933053;29;19978;-57
2023/01/31 08:03:33;;;;;;;;;;;;;;;2.80;71.30;98768.50;4934234;29;20380;-57
2023/01/31 08:06:02;;;;;;;;;;;;;;;2.81;71.19;98768.25;4939343;29;19996;-57
2023/01/31 08:08:30;;;;;;;;;;;;;;;2.86;71.04;98783.63;4926054;29;20408;-57
2023/01/31 08:10:58;;;;;;;;;;;;;;;2.88;70.58;98781.56;4925751;29;19927;-57
2023/01/31 08:13:26;;;;;;;;;;;;;;;2.92;70.76;98788.03;4922755;29;19931;-58
2023/01/31 08:15:59;;;;;;;;;;;;;;;2.85;70.35;98779.34;4916575;29;19990;-58
2023/01/31 08:18:28;;;;;;;;;;;;;;;2.76;70.61;98773.53;4939938;29;19927;-58
2023/01/31 08:20:56;;;;;;;;;;;;;;;2.62;70.71;98777.56;4932297;29;19927;-56
2023/01/31 08:23:24;;;;;;;;;;;;;;;2.53;70.80;98763.69;4933813;29;20499;-57
2023/01/31 08:25:53;;;;;;;;;;;;;;;2.51;70.70;98781.09;4919626;29;20018;-58
2023/01/31 08:28:21;;;;;;;;;;;;;;;2.54;70.98;98768.00;4921779;29;19927;-57
2023/01/31 08:33:42;;;;;;;;;;;;;;;2.48;70.58;98779.69;4921573;29;19927;-57
2023/01/31 08:36:11;;;;;;;;;;;;;;;2.53;70.30;98790.53;4944029;29;19968;-57
2023/01/31 08:38:43;;;;;;;;;;;;;;;2.56;70.38;98790.06;4918192;29;19937;-57
2023/01/31 08:41:13;;;;;;;;;;;;;;;2.63;70.11;98788.03;4931530;29;20002;-55
2023/01/31 08:43:42;;;;;;;;;;;;;;;2.75;69.75;98787.19;4925655;29;20376;-57
2023/01/31 08:46:23;;;;;;;;;;;;;;;2.73;69.34;98787.44;4916867;29;19938;-57
2023/01/31 08:48:53;;;;;;;;;;;;;;;2.79;69.75;98785.66;4911711;29;20014;-57
2023/01/31 08:51:22;;;;;;;;;;;;;;;2.75;69.31;98792.56;4915152;29;19955;-57
2023/01/31 08:53:49;;;;;;;;;;;;;;;2.74;69.08;98788.25;4918925;29;19935;-56
2023/01/31 08:56:20;;;;;;;;;;;;;;;2.76;69.29;98781.56;4916190;29;20293;-58
2023/01/31 09:01:45;;;;;;;;;;;;;;;2.98;68.29;98778.22;4918795;29;19942;-56
2023/01/31 09:04:14;;;;;;;;;;;;;;;2.98;68.25;98776.34;4920627;29;20412;-57
2023/01/31 09:06:42;;;;;;;;;;;;;;;2.90;67.97;98782.13;4914518;29;19931;-57
2023/01/31 09:09:10;;;;;;;;;;;;;;;2.91;68.54;98783.72;4918158;29;20337;-57
2023/01/31 09:11:38;;;;;;;;;;;;;;;2.95;68.17;98776.84;4925765;29;19927;-57
2023/01/31 09:14:06;;;;;;;;;;;;;;;2.99;67.58;98780.69;4923264;29;20034;-57
2023/01/31 09:16:34;;;;;;;;;;;;;;;2.99;67.56;98780.69;4923595;29;20395;-57
2023/01/31 09:19:02;;;;;;;;;;;;;;;2.99;67.60;98787.91;4904971;29;20372;-58
2023/01/31 09:21:32;;;;;;;;;;;;;;;3.05;67.28;98785.09;4910257;29;19935;-56
2023/01/31 09:24:02;;;;;;;;;;;;;;;3.10;67.60;98785.19;4903012;29;20341;-57
2023/01/31 09:26:30;;;;;;;;;;;;;;;3.03;67.36;98791.72;4932445;29;19931;-57
2023/01/31 09:29:01;;;;;;;;;;;;;;;2.98;67.61;98787.06;4904768;29;19955;-57
2023/01/31 09:31:54;;;;;;;;;;;;;;;2.95;68.00;98770.66;4907770;29;20300;-57
2023/01/31 09:34:22;;;;;;;;;;;;;;;2.96;67.77;98783.03;4923823;29;20377;-57
2023/01/31 09:36:56;;;;;;;;;;;;;;;2.99;67.52;98780.69;4923882;29;19927;-57
2023/01/31 09:39:24;;;;;;;;;;;;;;;3.08;67.40;98786.47;4915339;29;19936;-56
2023/01/31 09:41:53;;;;;;;;;;;;;;;3.01;67.37;98775.88;4930439;29;19931;-57
2023/01/31 09:44:23;;;;;;;;;;;;;;;3.00;67.82;98773.44;4917952;29;19934;-57
2023/01/31 09:46:52;;;;;;;;;;;;;;;3.00;67.76;98785.00;4920122;29;19946;-57
2023/01/31 09:49:49;;;;;;;;;;;;;;;3.06;67.68;98784.03;4910985;29;19927;-57
2023/01/31 09:52:42;;;;;;;;;;;;;;;3.12;67.97;98788.41;4917134;29;20407;-58
2023/01/31 09:55:16;;;;;;;;;;;;;;;3.23;66.99;98784.03;4919570;29;19927;-57
2023/01/31 09:57:49;;;;;;;;;;;;;;;3.35;66.59;98781.28;4918709;29;20488;-57
2023/01/31 10:00:19;;;;;;;;;;;;;;;3.32;66.28;98774.53;4929971;29;19934;-58
2023/01/31 10:02:51;;;;;;;;;;;;;;;3.39;66.61;98777.88;4933777;29;20384;-57
2023/01/31 10:05:22;;;;;;;;;;;;;;;3.31;66.48;98769.41;4922039;29;19927;-57
2023/01/31 10:07:52;;;;;;;;;;;;;;;3.40;66.70;98768.75;4903333;29;19927;-57
2023/01/31 10:10:24;;;;;;;;;;;;;;;3.57;66.20;98774.16;4918025;29;19965;-57
2023/01/31 10:12:53;;;;;;;;;;;;;;;3.59;66.12;98766.66;4917561;29;19943;-57
2023/01/31 10:15:25;;;;;;;;;;;;;;;3.68;65.72;98764.38;4903748;29;20380;-57
2023/01/31 10:17:53;;;;;;;;;;;;;;;3.82;65.68;98765.66;4921005;29;19927;-57
2023/01/31 10:20:24;;;;;;;;;;;;;;;3.79;65.73;98754.59;4923525;29;19934;-58
2023/01/31 10:22:52;;;;;;;;;;;;;;;3.75;66.05;98742.69;4926507;29;19965;-57
2023/01/31 10:25:25;;;;;;;;;;;;;;;3.76;65.89;98745.13;4911141;29;19935;-57
2023/01/31 10:27:56;;;;;;;;;;;;;;;3.64;65.85;98747.91;4921193;29;19952;-57
2023/01/31 10:30:25;;;;;;;;;;;;;;;3.62;65.92;98744.69;4935943;29;19927;-58
2023/01/31 10:32:56;;;;;;;;;;;;;;;3.71;65.96;98737.00;4928478;29;20399;-57
2023/01/31 10:35:29;;;;;;;;;;;;;;;3.74;65.75;98731.13;4927642;29;20416;-57
2023/01/31 10:38:00;;;;;;;;;;;;;;;3.48;66.28;98719.19;4925942;29;20036;-57
2023/01/31 10:40:30;;;;;;;;;;;;;;;3.54;66.71;98715.53;4922599;29;19926;-55
2023/01/31 10:43:01;;;;;;;;;;;;;;;3.58;66.59;98731.97;4917457;29;19952;-57
2023/01/31 10:45:32;;;;;;;;;;;;;;;3.52;66.64;98728.41;4919478;29;19959;-57
2023/01/31 10:48:04;;;;;;;;;;;;;;;3.52;66.80;98716.84;4918624;29;19959;-57
2023/01/31 10:50:34;;;;;;;;;;;;;;;3.63;65.80;98719.44;4929552;29;19966;-57
2023/01/31 10:53:10;;;;;;;;;;;;;;;3.73;65.66;98713.38;4917145;29;19931;-57
2023/01/31 10:55:44;;;;;;;;;;;;;;;3.70;65.67;98703.13;4921441;29;19927;-57
2023/01/31 10:58:15;;;;;;;;;;;;;;;3.71;66.25;98706.63;4914753;29;19927;-57
2023/01/31 11:00:46;;;;;;;;;;;;;;;3.76;65.62;98712.06;4910748;29;19927;-57
2023/01/31 11:03:14;;;;;;;;;;;;;;;3.68;65.04;98697.19;4929733;29;19927;-57
2023/01/31 11:05:44;;;;;;;;;;;;;;;3.66;65.35;98702.78;4923193;29;19931;-57
2023/01/31 11:08:22;;;;;;;;;;;;;;;3.58;65.54;98699.72;4928907;29;20292;-57
2023/01/31 11:10:52;;;;;;;;;;;;;;;3.63;65.72;98707.88;4933836;29;19934;-56
2023/01/31 11:13:21;;;;;;;;;;;;;;;3.70;65.48;98696.94;4906596;29;19934;-57
2023/01/31 11:15:49;;;;;;;;;;;;;;;3.71;65.49;98696.69;4926340;29;19927;-56
2023/01/31 11:18:42;;;;;;;;;;;;;;;3.64;65.73;98696.88;4923840;29;19927;-56
2023/01/31 11:21:12;;;;;;;;;;;;;;;3.57;65.95;98688.16;4937694;29;19927;-57
2023/01/31 11:23:40;;;;;;;;;;;;;;;3.68;65.33;98694.50;4923005;29;19933;-56
2023/01/31 11:26:09;;;;;;;;;;;;;;;3.59;65.81;98680.66;4915665;29;19935;-57
2023/01/31 11:28:38;;;;;;;;;;;;;;;3.61;65.63;98683.09;4917001;29;19927;-57
2023/01/31 11:31:07;;;;;;;;;;;;;;;3.75;65.89;98672.81;4926463;29;19934;-57
2023/01/31 11:33:43;;;;;;;;;;;;;;;3.85;64.61;98667.59;4920786;29;19927;-57
2023/01/31 11:36:11;;;;;;;;;;;;;;;4.10;63.95;98656.31;4914479;29;20360;-56
2023/01/31 11:38:40;;;;;;;;;;;;;;;4.26;63.54;98657.31;4915955;29;19931;-57
2023/01/31 11:44:18;;;;;;;;;;;;;;;4.32;62.72;98642.88;4919689;29;19970;-57
2023/01/31 11:46:47;;;;;;;;;;;;;;;4.41;62.84;98652.91;4916112;29;19927;-57
2023/01/31 11:49:19;;;;;;;;;;;;;;;4.45;61.98;98645.16;4916044;29;19934;-57
2023/01/31 11:52:13;;;;;;;;;;;;;;;4.38;61.76;98636.47;4917134;29;19934;-57
2023/01/31 11:54:42;;;;;;;;;;;;;;;4.48;62.16;98639.28;4918646;29;20373;-57
2023/01/31 11:57:14;;;;;;;;;;;;;;;4.57;61.75;98618.91;4913787;29;19927;-57
2023/01/31 11:59:44;;;;;;;;;;;;;;;4.42;61.96;98610.66;4911692;29;20038;-57
2023/01/31 12:02:26;;;;;;;;;;;;;;;4.40;61.92;98605.56;4915741;29;19934;-57
2023/01/31 12:04:55;;;;;;;;;;;;;;;4.28;62.97;98599.53;4921543;29;19927;-57
2023/01/31 12:07:24;;;;;;;;;;;;;;;4.14;63.12;98609.84;4898501;29;20392;-57
2023/01/31 12:09:51;;;;;;;;;;;;;;;3.91;63.88;98613.63;4893978;29;19943;-57
2023/01/31 12:12:21;;;;;;;;;;;;;;;3.97;63.96;98619.06;4920723;29;19927;-57
2023/01/31 12:14:51;;;;;;;;;;;;;;;3.82;64.65;98608.94;4917808;29;20394;-56
2023/01/31 12:17:19;;;;;;;;;;;;;;;3.70;64.78;98605.56;4926319;29;20001;-56
2023/01/31 12:19:50;;;;;;;;;;;;;;;3.62;65.00;98599.56;4925689;29;20296;-57
2023/01/31 12:22:20;;;;;;;;;;;;;;;3.66;65.37;98599.88;4925446;29;19927;-57
2023/01/31 12:24:52;;;;;;;;;;;;;;;3.62;65.02;98591.53;4926634;29;20427;-55
2023/01/31 12:27:24;;;;;;;;;;;;;;;3.54;65.64;98591.94;4910734;29;19948;-57
2023/01/31 12:30:01;;;;;;;;;;;;;;;3.53;65.46;98593.00;4930873;29;19926;-56
2023/01/31 12:32:32;;;;;;;;;;;;;;;3.43;66.30;98590.19;4919708;29;19927;-57
2023/01/31 12:35:08;;;;;;;;;;;;;;;3.48;65.88;98592.13;4939102;29;19934;-57
2023/01/31 12:37:40;;;;;;;;;;;;;;;3.36;66.02;98586.88;4923384;29;19927;-56
2023/01/31 12:40:15;;;;;;;;;;;;;;;3.34;66.55;98579.03;4911760;29;19931;-57
2023/01/31 12:42:56;;;;;;;;;;;;;;;3.36;67.08;98600.31;4918807;29;19942;-56
2023/01/31 12:45:30;;;;;;;;;;;;;;;3.37;66.70;98608.09;4920612;29;19938;-57
2023/01/31 12:48:08;;;;;;;;;;;;;;;3.38;66.55;98608.91;4923753;29;19928;-56
2023/01/31 12:50:36;;;;;;;;;;;;;;;3.43;66.43;98595.56;4922901;29;20407;-56
2023/01/31 12:53:22;;;;;;;;;;;;;;;3.41;66.87;98608.44;4922721;29;19942;-57
2023/01/31 12:55:51;;;;;;;;;;;;;;;3.34;67.27;98607.78;4916522;29;20432;-55
2023/01/31 12:58:24;;;;;;;;;;;;;;;3.36;67.15;98605.66;4931397;29;19934;-56
2023/01/31 13:00:57;;;;;;;;;;;;;;;3.27;67.60;98612.50;4923657;29;19933;-58
2023/01/31 13:03:32;;;;;;;;;;;;;;;3.21;67.79;98603.56;4923829;29;19938;-57
2023/01/31 13:06:01;;;;;;;;;;;;;;;3.22;67.64;98615.13;4911571;29;20274;-56
2023/01/31 13:08:31;;;;;;;;;;;;;;;3.25;67.78;98622.66;4927576;29;19934;-55
2023/01/31 13:11:00;;;;;;;;;;;;;;;3.28;67.79;98616.81;4917145;29;19928;-57
2023/01/31 13:13:29;;;;;;;;;;;;;;;3.17;67.81;98615.84;4925154;29;20017;-57
2023/01/31 13:15:59;;;;;;;;;;;;;;;3.17;67.97;98609.69;4926888;29;19927;-56
2023/01/31 13:18:31;;;;;;;;;;;;;;;3.18;68.21;98608.63;4912033;29;19931;-54
2023/01/31 13:21:26;;;;;;;;;;;;;;;3.17;68.10;98604.31;4913582;29;20499;-56
2023/01/31 13:23:55;;;;;;;;;;;;;;;3.18;67.92;98597.88;4928988;29;20296;-56
2023/01/31 13:26:25;;;;;;;;;;;;;;;3.18;68.24;98606.75;4913460;29;19946;-57
2023/01/31 13:28:55;;;;;;;;;;;;;;;3.08;68.39;98599.34;4897948;29;19927;-57
2023/01/31 13:31:25;;;;;;;;;;;;;;;3.09;68.59;98603.69;4912524;29;19951;-56
2023/01/31 13:34:21;;;;;;;;;;;;;;;3.07;68.64;98589.66;4914799;29;19928;-56
2023/01/31 13:36:50;;;;;;;;;;;;;;;3.07;68.63;98581.59;4929635;29;20300;-57
2023/01/31 13:39:20;;;;;;;;;;;;;;;3.06;68.98;98555.84;4914522;29;20014;-57
2023/01/31 13:41:48;;;;;;;;;;;;;;;3.12;68.93;98559.41;4907368;29;19931;-55
2023/01/31 13:44:17;;;;;;;;;;;;;;;3.12;68.53;98546.78;4920963;29;19933;-57
2023/01/31 13:46:47;;;;;;;;;;;;;;;3.14;68.87;98536.63;4916153;29;19931;-57
2023/01/31 13:49:20;;;;;;;;;;;;;;;3.12;68.27;98519.94;4920535;29;19935;-57
2023/01/31 13:52:15;;;;;;;;;;;;;;;3.27;67.89;98511.28;4916186;29;19953;-57